createdAt,value
2018-06-15T00:00:07.918Z,29.47
2018-06-15T00:02:42.186Z,28.57
2018-06-15T00:05:16.470Z,27.10
2018-06-15T00:07:50.797Z,27.40
2018-06-15T00:10:25.054Z,25.93
2018-06-15T00:12:59.442Z,25.07
2018-06-15T00:15:33.723Z,25.03
2018-06-15T00:18:07.922Z,26.17
2018-06-15T00:20:42.118Z,25.57
2018-06-15T00:23:16.607Z,24.53
2018-06-15T00:25:50.813Z,26.20
2018-06-15T00:28:24.898Z,25.93
2018-06-15T00:30:59.250Z,25.97
2018-06-15T00:33:33.479Z,27.83
2018-06-15T00:36:07.668Z,27.33
2018-06-15T00:38:41.829Z,27.03
2018-06-15T00:41:16.153Z,27.53
2018-06-15T00:43:50.608Z,27.63
2018-06-15T00:46:24.858Z,27.80
2018-06-15T00:48:59.155Z,26.87
2018-06-15T00:51:33.435Z,27.07
2018-06-15T00:54:07.735Z,25.87
2018-06-15T00:56:53.391Z,30.30
2018-06-15T00:59:27.675Z,27.63
2018-06-15T01:02:02.011Z,27.60
2018-06-15T01:04:36.294Z,28.17
2018-06-15T01:07:10.637Z,28.77
2018-06-15T01:09:45.036Z,29.37
2018-06-15T01:12:19.329Z,29.43
2018-06-15T01:14:53.642Z,28.60
2018-06-15T01:17:28.062Z,28.30
2018-06-15T01:20:02.246Z,26.90
2018-06-15T01:22:36.497Z,29.00
2018-06-15T01:25:10.802Z,28.47
2018-06-15T01:27:45.051Z,28.57
2018-06-15T01:30:19.337Z,29.77
2018-06-15T01:32:53.715Z,29.80
2018-06-15T01:35:27.993Z,27.87
2018-06-15T01:38:02.270Z,29.50
2018-06-15T01:40:36.680Z,29.93
2018-06-15T01:43:11.007Z,29.97
2018-06-15T01:45:45.270Z,28.97
2018-06-15T01:48:19.550Z,28.40
2018-06-15T01:50:53.858Z,29.50
2018-06-15T01:53:27.926Z,27.57
2018-06-15T01:56:02.234Z,29.20
2018-06-15T01:58:36.647Z,28.77
2018-06-15T02:01:11.108Z,29.33
2018-06-15T02:03:45.340Z,29.33
2018-06-15T02:06:19.614Z,29.20
2018-06-15T02:08:53.831Z,28.73
2018-06-15T02:11:29.067Z,29.13
2018-06-15T02:14:03.154Z,28.23
2018-06-15T02:16:37.373Z,29.60
2018-06-15T02:19:11.684Z,29.90
2018-06-15T02:21:45.914Z,29.37
2018-06-15T02:24:20.241Z,27.57
2018-06-15T02:26:54.624Z,28.57
2018-06-15T02:29:28.909Z,27.53
2018-06-15T02:32:03.207Z,28.37
2018-06-15T02:34:37.484Z,28.77
2018-06-15T02:37:11.717Z,27.70
2018-06-15T02:39:45.835Z,28.00
2018-06-15T02:42:20.182Z,28.43
2018-06-15T02:44:54.370Z,27.47
2018-06-15T02:47:28.575Z,27.40
2018-06-15T02:50:02.974Z,27.93
2018-06-15T02:52:37.211Z,28.33
2018-06-15T02:55:11.545Z,26.90
2018-06-15T02:57:45.866Z,30.30
2018-06-15T03:00:20.162Z,27.67
2018-06-15T03:02:54.499Z,27.57
2018-06-15T03:05:28.698Z,30.13
2018-06-15T03:08:03.005Z,26.93
2018-06-15T03:10:37.126Z,27.67
2018-06-15T03:13:11.351Z,28.13
2018-06-15T03:15:45.595Z,26.43
2018-06-15T03:18:19.847Z,27.90
2018-06-15T03:20:54.150Z,27.90
2018-06-15T03:23:28.323Z,27.57
2018-06-15T03:26:02.507Z,27.47
2018-06-15T03:28:36.953Z,26.57
2018-06-15T03:31:11.234Z,28.20
2018-06-15T03:33:45.595Z,27.00
2018-06-15T03:36:19.793Z,28.17
2018-06-15T03:38:53.960Z,27.13
2018-06-15T03:41:28.122Z,29.30
2018-06-15T03:44:02.310Z,28.03
2018-06-15T03:46:37.723Z,28.07
2018-06-15T03:49:12.088Z,26.83
2018-06-15T03:51:46.382Z,28.23
2018-06-15T03:54:20.679Z,27.30
2018-06-15T03:56:55.024Z,28.00
2018-06-15T03:59:29.313Z,27.13
2018-06-15T04:02:03.652Z,27.40
2018-06-15T04:04:37.925Z,27.43
2018-06-15T04:07:12.262Z,28.30
2018-06-15T04:09:46.623Z,32.53
2018-06-15T04:12:21.015Z,28.60
2018-06-15T04:14:55.375Z,28.33
2018-06-15T04:17:29.680Z,27.93
2018-06-15T04:20:03.859Z,27.77
2018-06-15T04:22:38.110Z,29.20
2018-06-15T04:25:12.455Z,28.23
2018-06-15T04:27:46.787Z,27.87
2018-06-15T04:30:21.134Z,27.83
2018-06-15T04:32:55.724Z,28.57
2018-06-15T04:35:29.919Z,27.70
2018-06-15T04:38:04.117Z,28.93
2018-06-15T04:40:38.378Z,27.77
2018-06-15T04:43:12.578Z,28.53
2018-06-15T04:45:46.958Z,28.30
2018-06-15T04:48:21.340Z,28.83
2018-06-15T04:50:55.692Z,30.47
2018-06-15T04:53:30.066Z,28.70
2018-06-15T04:56:04.401Z,28.80
2018-06-15T04:58:38.797Z,28.87
2018-06-15T05:01:13.111Z,27.77
2018-06-15T05:03:47.375Z,28.27
2018-06-15T05:06:21.794Z,29.00
2018-06-15T05:08:56.160Z,29.07
2018-06-15T05:11:30.455Z,29.00
2018-06-15T05:14:04.646Z,28.73
2018-06-15T05:16:38.897Z,28.43
2018-06-15T05:19:13.134Z,28.87
2018-06-15T05:21:47.379Z,29.83
2018-06-15T05:24:21.618Z,30.57
2018-06-15T05:26:55.829Z,29.07
2018-06-15T05:29:30.205Z,29.53
2018-06-15T05:32:04.605Z,28.50
2018-06-15T05:34:38.810Z,29.03
2018-06-15T05:37:13.238Z,27.90
2018-06-15T05:39:47.438Z,27.20
2018-06-15T05:42:21.712Z,26.47
2018-06-15T05:44:56.051Z,25.50
2018-06-15T05:47:30.354Z,26.63
2018-06-15T05:50:04.645Z,25.70
2018-06-15T05:52:38.834Z,25.10
2018-06-15T05:55:13.198Z,24.90
2018-06-15T05:57:47.490Z,24.73
2018-06-15T06:00:22.122Z,24.30
2018-06-15T06:02:56.381Z,25.57
2018-06-15T06:05:30.620Z,24.43
2018-06-15T06:08:04.938Z,23.97
2018-06-15T06:10:39.284Z,26.13
2018-06-15T06:13:13.580Z,26.03
2018-06-15T06:15:47.752Z,25.07
2018-06-15T06:18:22.087Z,25.30
2018-06-15T06:20:56.224Z,24.40
2018-06-15T06:23:30.544Z,24.13
2018-06-15T06:26:05.111Z,24.53
2018-06-15T06:28:39.486Z,24.23
2018-06-15T06:31:13.721Z,22.47
2018-06-15T06:33:48.099Z,21.80
2018-06-15T06:36:22.367Z,21.93
2018-06-15T06:38:56.540Z,21.93
2018-06-15T06:41:30.662Z,21.17
2018-06-15T06:44:04.986Z,20.83
2018-06-15T06:46:39.176Z,18.80
2018-06-15T06:49:13.483Z,20.33
2018-06-15T06:51:47.785Z,19.47
2018-06-15T06:54:22.062Z,19.27
2018-06-15T06:56:56.475Z,19.93
2018-06-15T06:59:30.761Z,20.60
2018-06-15T07:02:04.808Z,21.03
2018-06-15T07:04:39.132Z,20.27
2018-06-15T07:07:13.504Z,21.40
2018-06-15T07:09:47.698Z,20.47
2018-06-15T07:12:21.866Z,19.93
2018-06-15T07:14:57.541Z,20.73
2018-06-15T07:17:31.818Z,20.40
2018-06-15T07:20:06.029Z,19.83
2018-06-15T07:22:40.323Z,20.47
2018-06-15T07:25:15.015Z,20.70
2018-06-15T07:27:49.182Z,19.17
2018-06-15T07:30:23.519Z,20.77
2018-06-15T07:32:57.794Z,18.77
2018-06-15T07:35:32.234Z,20.07
2018-06-15T07:38:06.534Z,19.20
2018-06-15T07:40:40.939Z,19.20
2018-06-15T07:43:15.327Z,18.73
2018-06-15T07:45:49.672Z,19.93
2018-06-15T07:48:23.914Z,20.03
2018-06-15T07:50:58.281Z,18.63
2018-06-15T07:53:32.557Z,17.63
2018-06-15T07:56:06.878Z,17.93
2018-06-15T07:58:41.235Z,19.00
2018-06-15T08:01:15.627Z,19.20
2018-06-15T08:03:55.258Z,18.50
2018-06-15T08:06:29.482Z,19.60
2018-06-15T08:09:05.642Z,18.87
2018-06-15T08:11:39.857Z,19.23
2018-06-15T08:14:14.311Z,18.73
2018-06-15T08:16:48.666Z,18.57
2018-06-15T08:19:22.903Z,18.67
2018-06-15T08:21:57.066Z,19.23
2018-06-15T08:24:31.362Z,16.60
2018-06-15T08:27:05.890Z,17.13
2018-06-15T08:29:40.102Z,18.00
2018-06-15T08:32:14.450Z,16.73
2018-06-15T08:34:48.862Z,17.27
2018-06-15T08:37:23.166Z,15.63
2018-06-15T08:39:57.590Z,17.70
2018-06-15T08:42:31.962Z,17.23
2018-06-15T08:45:06.430Z,16.37
2018-06-15T08:47:40.778Z,16.03
2018-06-15T08:50:15.191Z,15.83
2018-06-15T08:52:49.665Z,15.90
2018-06-15T08:55:23.787Z,14.83
2018-06-15T08:57:58.120Z,14.87
2018-06-15T09:00:32.359Z,15.67
2018-06-15T09:03:06.578Z,17.50
2018-06-15T09:05:41.024Z,14.70
2018-06-15T09:08:15.295Z,13.37
2018-06-15T09:10:49.661Z,13.80
2018-06-15T09:13:23.902Z,12.97
2018-06-15T09:15:58.307Z,14.30
2018-06-15T09:18:32.653Z,13.43
2018-06-15T09:21:06.946Z,14.37
2018-06-15T09:23:41.194Z,12.87
2018-06-15T09:26:15.487Z,12.30
2018-06-15T09:28:49.859Z,13.07
2018-06-15T09:31:24.091Z,13.03
2018-06-15T09:33:58.317Z,12.20
2018-06-15T09:36:32.576Z,12.80
2018-06-15T09:39:06.905Z,12.97
2018-06-15T09:41:41.638Z,12.67
2018-06-15T09:44:15.802Z,12.00
2018-06-15T09:46:50.015Z,12.13
2018-06-15T09:49:24.187Z,9.07
2018-06-15T09:51:58.415Z,7.80
2018-06-15T09:54:32.638Z,6.93
2018-06-15T09:57:07.032Z,6.47
2018-06-15T09:59:41.214Z,6.20
2018-06-15T10:02:15.506Z,6.33
2018-06-15T10:04:49.902Z,5.40
2018-06-15T10:07:24.269Z,6.67
2018-06-15T10:09:58.582Z,7.00
2018-06-15T10:12:32.874Z,6.13
2018-06-15T10:15:07.195Z,6.57
2018-06-15T10:17:41.675Z,5.43
2018-06-15T10:20:15.958Z,5.47
2018-06-15T10:22:50.289Z,4.17
2018-06-15T10:25:24.476Z,4.27
2018-06-15T10:27:58.693Z,4.13
2018-06-15T10:30:33.028Z,4.57
2018-06-15T10:33:07.533Z,5.10
2018-06-15T10:35:41.774Z,3.73
2018-06-15T10:38:16.014Z,5.43
2018-06-15T10:40:50.175Z,4.43
2018-06-15T10:43:24.493Z,4.77
2018-06-15T10:45:58.758Z,4.67
2018-06-15T10:48:33.069Z,5.50
2018-06-15T10:51:07.421Z,5.30
2018-06-15T10:53:41.652Z,5.13
2018-06-15T10:56:15.963Z,5.00
2018-06-15T10:58:50.216Z,4.70
2018-06-15T11:01:24.492Z,4.90
2018-06-15T11:03:58.883Z,4.80
2018-06-15T11:06:33.174Z,5.00
2018-06-15T11:09:08.109Z,5.20
2018-06-15T11:11:42.331Z,4.70
2018-06-15T11:14:16.664Z,4.97
2018-06-15T11:16:50.915Z,4.50
2018-06-15T11:19:25.212Z,4.80
2018-06-15T11:21:59.618Z,4.43
2018-06-15T11:24:33.953Z,4.70
2018-06-15T11:27:08.234Z,4.83
2018-06-15T11:29:42.435Z,4.30
2018-06-15T11:32:16.893Z,4.63
2018-06-15T11:34:55.883Z,4.27
2018-06-15T11:37:30.207Z,4.40
2018-06-15T11:40:04.556Z,3.77
2018-06-15T11:42:38.870Z,3.67
2018-06-15T11:45:13.137Z,3.97
2018-06-15T11:47:47.303Z,4.17
2018-06-15T11:50:21.622Z,4.20
2018-06-15T11:52:55.955Z,3.47
2018-06-15T11:55:30.242Z,3.27
2018-06-15T11:58:04.614Z,3.57
2018-06-15T12:00:38.919Z,3.87
2018-06-15T12:03:13.151Z,3.90
2018-06-15T12:05:47.451Z,4.27
2018-06-15T12:08:21.810Z,3.47
2018-06-15T12:10:56.080Z,3.70
2018-06-15T12:13:30.576Z,3.83
2018-06-15T12:16:04.870Z,4.43
2018-06-15T12:18:39.266Z,3.10
2018-06-15T12:21:13.518Z,3.03
2018-06-15T12:23:47.779Z,3.13
2018-06-15T12:26:21.910Z,3.33
2018-06-15T12:28:56.161Z,3.37
2018-06-15T12:31:30.342Z,3.00
2018-06-15T12:34:04.432Z,3.20
2018-06-15T12:36:38.575Z,3.00
2018-06-15T12:39:13.020Z,2.63
2018-06-15T12:41:47.394Z,2.97
2018-06-15T12:44:21.874Z,2.60
2018-06-15T12:46:56.134Z,2.67
2018-06-15T12:49:30.541Z,2.57
2018-06-15T12:52:05.062Z,2.80
2018-06-15T12:54:39.315Z,2.50
2018-06-15T12:57:13.596Z,2.83
2018-06-15T12:59:47.790Z,2.73
2018-06-15T13:02:22.004Z,2.80
2018-06-15T13:04:56.181Z,3.20
2018-06-15T13:07:30.315Z,2.90
2018-06-15T13:10:04.775Z,2.77
2018-06-15T13:12:39.054Z,3.63
2018-06-15T13:15:13.323Z,3.57
2018-06-15T13:17:47.632Z,3.37
2018-06-15T13:20:21.719Z,3.47
2018-06-15T13:22:55.996Z,3.20
2018-06-15T13:25:30.207Z,3.10
2018-06-15T13:28:04.547Z,3.30
2018-06-15T13:30:38.787Z,3.20
2018-06-15T13:33:13.087Z,3.30
2018-06-15T13:35:47.495Z,3.37
2018-06-15T13:38:21.763Z,3.10
2018-06-15T13:40:56.082Z,3.50
2018-06-15T13:43:30.326Z,3.07
2018-06-15T13:46:04.560Z,2.67
2018-06-15T13:48:38.824Z,3.23
2018-06-15T13:51:13.130Z,3.30
2018-06-15T13:53:47.439Z,4.10
2018-06-15T13:56:21.942Z,3.60
2018-06-15T13:58:56.331Z,3.00
2018-06-15T14:01:30.614Z,3.47
2018-06-15T14:04:04.926Z,3.57
2018-06-15T14:06:39.224Z,3.90
2018-06-15T14:09:13.521Z,4.07
2018-06-15T14:11:47.843Z,4.20
2018-06-15T14:14:22.018Z,4.40
2018-06-15T14:16:56.186Z,4.40
2018-06-15T14:19:30.474Z,4.10
2018-06-15T14:22:04.791Z,3.93
2018-06-15T14:24:39.003Z,4.30
2018-06-15T14:27:13.257Z,3.93
2018-06-15T14:29:47.685Z,4.40
2018-06-15T14:32:22.063Z,5.43
2018-06-15T14:34:56.244Z,4.90
2018-06-15T14:37:30.617Z,4.63
2018-06-15T14:40:05.054Z,4.90
2018-06-15T14:42:39.330Z,5.47
2018-06-15T14:45:13.687Z,5.60
2018-06-15T14:47:47.941Z,5.30
2018-06-15T14:50:22.148Z,5.17
2018-06-15T14:52:56.468Z,6.13
2018-06-15T14:55:30.780Z,5.43
2018-06-15T14:58:05.178Z,5.30
2018-06-15T15:00:39.590Z,5.40
2018-06-15T15:03:13.874Z,5.60
2018-06-15T15:05:48.230Z,5.17
2018-06-15T15:08:22.627Z,4.73
2018-06-15T15:10:56.847Z,4.90
2018-06-15T15:13:31.298Z,5.53
2018-06-15T15:16:05.480Z,5.50
2018-06-15T15:18:39.734Z,4.87
2018-06-15T15:21:14.014Z,5.67
2018-06-15T15:23:48.166Z,4.83
2018-06-15T15:26:22.374Z,4.83
2018-06-15T15:28:56.728Z,5.83
2018-06-15T15:31:31.059Z,5.37
2018-06-15T15:34:05.390Z,4.80
2018-06-15T15:36:39.671Z,5.40
2018-06-15T15:39:13.937Z,5.23
2018-06-15T15:41:48.254Z,4.70
2018-06-15T15:44:22.419Z,5.63
2018-06-15T15:46:56.697Z,5.23
2018-06-15T15:49:30.979Z,5.80
2018-06-15T15:52:05.399Z,5.30
2018-06-15T15:54:39.666Z,6.43
2018-06-15T15:57:13.832Z,5.33
2018-06-15T15:59:48.126Z,5.50
2018-06-15T16:02:22.455Z,4.73
2018-06-15T16:04:56.607Z,5.73
2018-06-15T16:07:30.924Z,5.80
2018-06-15T16:10:05.396Z,4.67
2018-06-15T16:12:39.782Z,5.27
2018-06-15T16:15:14.070Z,5.20
2018-06-15T16:17:48.352Z,5.00
2018-06-15T16:20:22.671Z,5.60
2018-06-15T16:22:56.983Z,5.40
2018-06-15T16:25:31.262Z,5.53
2018-06-15T16:28:05.524Z,5.47
2018-06-15T16:30:39.871Z,5.00
2018-06-15T16:33:14.380Z,6.23
2018-06-15T16:35:48.547Z,6.20
2018-06-15T16:38:22.838Z,5.97
2018-06-15T16:40:57.190Z,5.53
2018-06-15T16:43:31.526Z,6.13
2018-06-15T16:46:05.877Z,7.07
2018-06-15T16:48:40.410Z,5.47
2018-06-15T16:51:14.602Z,6.40
2018-06-15T16:53:48.866Z,6.13
2018-06-15T16:56:23.225Z,5.73
2018-06-15T16:58:57.473Z,5.93
2018-06-15T17:01:31.889Z,6.43
2018-06-15T17:04:06.324Z,6.93
2018-06-15T17:06:40.651Z,5.83
2018-06-15T17:09:14.866Z,6.77
2018-06-15T17:11:49.294Z,6.20
2018-06-15T17:14:23.432Z,6.10
2018-06-15T17:16:57.736Z,5.40
2018-06-15T17:19:32.038Z,6.57
2018-06-15T17:22:06.322Z,5.73
2018-06-15T17:24:40.498Z,6.23
2018-06-15T17:27:14.670Z,5.40
2018-06-15T17:29:49.142Z,5.87
2018-06-15T17:32:23.423Z,5.43
2018-06-15T17:34:57.879Z,6.03
2018-06-15T17:37:32.253Z,7.57
2018-06-15T17:40:06.447Z,6.67
2018-06-15T17:42:40.794Z,6.10
2018-06-15T17:45:15.051Z,5.77
2018-06-15T17:47:49.225Z,5.37
2018-06-15T17:50:23.378Z,4.80
2018-06-15T17:52:57.745Z,5.00
2018-06-15T17:55:31.867Z,5.70
2018-06-15T17:58:06.343Z,5.40
2018-06-15T18:00:40.900Z,5.73
2018-06-15T18:03:15.112Z,6.20
2018-06-15T18:05:49.511Z,6.00
2018-06-15T18:08:23.716Z,5.73
2018-06-15T18:10:57.854Z,5.67
2018-06-15T18:13:32.240Z,6.20
2018-06-15T18:16:06.499Z,6.83
2018-06-15T18:18:40.896Z,6.07
2018-06-15T18:21:15.489Z,6.10
2018-06-15T18:23:49.684Z,5.67
2018-06-15T18:26:24.038Z,9.03
2018-06-15T18:28:58.355Z,7.00
2018-06-15T18:31:32.616Z,6.47
2018-06-15T18:34:06.886Z,6.37
2018-06-15T18:36:41.146Z,5.80
2018-06-15T18:39:15.540Z,6.37
2018-06-15T18:41:49.734Z,6.30
2018-06-15T18:44:24.062Z,5.77
2018-06-15T18:46:58.319Z,5.87
2018-06-15T18:49:32.600Z,6.43
2018-06-15T18:52:06.927Z,5.80
2018-06-15T18:54:41.188Z,5.70
2018-06-15T18:57:15.387Z,6.07
2018-06-15T18:59:49.647Z,6.07
2018-06-15T19:02:24.037Z,6.13
2018-06-15T19:04:58.350Z,6.57
2018-06-15T19:07:32.667Z,6.53
2018-06-15T19:10:07.019Z,6.63
2018-06-15T19:12:41.211Z,6.57
2018-06-15T19:15:15.430Z,6.80
2018-06-15T19:17:49.730Z,6.83
2018-06-15T19:20:24.044Z,7.00
2018-06-15T19:22:58.414Z,6.80
2018-06-15T19:25:32.792Z,6.23
2018-06-15T19:28:07.066Z,7.00
2018-06-15T19:30:41.346Z,6.70
2018-06-15T19:33:15.726Z,6.93
2018-06-15T19:35:50.138Z,6.67
2018-06-15T19:38:24.319Z,6.70
2018-06-15T19:40:58.619Z,6.23
2018-06-15T19:43:33.044Z,7.03
2018-06-15T19:46:07.280Z,6.30
2018-06-15T19:48:41.619Z,6.97
2018-06-15T19:51:15.808Z,7.00
2018-06-15T19:53:50.185Z,6.53
2018-06-15T19:56:24.474Z,6.97
2018-06-15T19:58:58.834Z,6.40
2018-06-15T20:01:33.223Z,6.73
2018-06-15T20:04:07.606Z,6.93
2018-06-15T20:06:41.899Z,6.87
2018-06-15T20:09:16.290Z,7.27
2018-06-15T20:11:50.682Z,6.63
2018-06-15T20:14:24.991Z,7.57
2018-06-15T20:16:59.298Z,7.77
2018-06-15T20:19:33.575Z,8.10
2018-06-15T20:22:07.978Z,7.73
2018-06-15T20:24:42.179Z,7.57
2018-06-15T20:27:16.595Z,8.43
2018-06-15T20:29:50.818Z,8.03
2018-06-15T20:32:24.955Z,7.63
2018-06-15T20:34:59.371Z,7.60
2018-06-15T20:37:33.698Z,7.77
2018-06-15T20:40:08.002Z,8.20
2018-06-15T20:42:42.157Z,8.07
2018-06-15T20:45:16.422Z,7.77
2018-06-15T20:47:50.678Z,9.80
2018-06-15T20:50:25.028Z,9.30
2018-06-15T20:52:59.222Z,8.23
2018-06-15T20:55:33.531Z,8.30
2018-06-15T20:58:07.860Z,8.40
2018-06-15T21:00:42.118Z,8.57
2018-06-15T21:03:16.414Z,8.13
2018-06-15T21:05:50.696Z,9.10
2018-06-15T21:08:25.031Z,8.40
2018-06-15T21:11:00.055Z,8.73
2018-06-15T21:13:34.281Z,8.97
2018-06-15T21:16:08.759Z,9.43
2018-06-15T21:18:43.063Z,8.20
2018-06-15T21:21:17.214Z,8.43
2018-06-15T21:23:51.595Z,8.23
2018-06-15T21:26:25.807Z,8.63
2018-06-15T21:28:59.947Z,9.00
2018-06-15T21:31:34.278Z,8.97
2018-06-15T21:34:08.606Z,9.03
2018-06-15T21:36:42.879Z,9.17
2018-06-15T21:39:17.142Z,8.87
2018-06-15T21:41:51.465Z,8.53
2018-06-15T21:44:25.622Z,8.13
2018-06-15T21:46:59.842Z,8.70
2018-06-15T21:49:34.320Z,8.30
2018-06-15T21:52:08.768Z,8.13
2018-06-15T21:54:43.109Z,8.43
2018-06-15T21:57:17.443Z,8.43
2018-06-15T21:59:51.583Z,8.80
2018-06-15T22:02:26.002Z,8.57
2018-06-15T22:05:00.370Z,8.57
2018-06-15T22:07:34.695Z,9.03
2018-06-15T22:10:09.030Z,8.80
2018-06-15T22:12:43.377Z,8.87
2018-06-15T22:15:17.510Z,8.87
2018-06-15T22:17:51.782Z,8.83
2018-06-15T22:20:26.071Z,9.00
2018-06-15T22:23:00.478Z,9.20
2018-06-15T22:25:34.873Z,8.60
2018-06-15T22:28:09.180Z,8.83
2018-06-15T22:30:43.502Z,9.33
2018-06-15T22:33:17.866Z,9.07
2018-06-15T22:35:52.259Z,8.80
2018-06-15T22:38:26.527Z,8.30
2018-06-15T22:41:00.882Z,8.50
2018-06-15T22:43:35.202Z,8.13
2018-06-15T22:46:09.385Z,8.90
2018-06-15T22:48:43.647Z,8.57
2018-06-15T22:51:18.018Z,9.83
2018-06-15T22:53:52.192Z,9.03
2018-06-15T22:56:26.470Z,9.00
2018-06-15T22:59:00.823Z,9.23
2018-06-15T23:01:35.159Z,9.00
2018-06-15T23:04:09.334Z,9.33
2018-06-15T23:06:43.638Z,9.27
2018-06-15T23:09:17.907Z,8.90
2018-06-15T23:11:52.198Z,8.90
2018-06-15T23:14:26.466Z,8.70
2018-06-15T23:17:00.773Z,9.93
2018-06-15T23:19:34.927Z,10.50
2018-06-15T23:22:09.203Z,9.73
2018-06-15T23:24:43.418Z,10.47
2018-06-15T23:27:17.660Z,9.50
2018-06-15T23:29:51.912Z,10.93
2018-06-15T23:32:26.479Z,9.83
2018-06-15T23:35:00.719Z,9.77
2018-06-15T23:37:34.907Z,9.27
2018-06-15T23:40:09.166Z,9.10
2018-06-15T23:42:43.545Z,9.63
2018-06-15T23:45:17.818Z,10.10
2018-06-15T23:47:52.008Z,9.17
2018-06-15T23:50:26.337Z,9.30
2018-06-15T23:53:00.671Z,9.47
2018-06-15T23:55:34.911Z,9.07
2018-06-15T23:58:09.149Z,8.20
